createdAt,value
2018-10-16T00:00:32.294Z,13.00
2018-10-16T00:03:01.567Z,13.00
2018-10-16T00:05:30.776Z,13.00
2018-10-16T00:08:00.075Z,13.10
2018-10-16T00:10:34.193Z,13.10
2018-10-16T00:13:03.373Z,13.20
2018-10-16T00:15:32.577Z,13.10
2018-10-16T00:18:01.665Z,13.10
2018-10-16T00:20:30.783Z,13.10
2018-10-16T00:22:59.924Z,12.90
2018-10-16T00:25:29.047Z,12.90
2018-10-16T00:27:58.048Z,13.00
2018-10-16T00:30:27.164Z,13.00
2018-10-16T00:32:56.346Z,13.10
2018-10-16T00:35:25.545Z,13.10
2018-10-16T00:37:54.628Z,13.10
2018-10-16T00:40:23.845Z,13.10
2018-10-16T00:42:53.013Z,13.00
2018-10-16T00:45:22.171Z,13.00
2018-10-16T00:47:51.416Z,13.00
2018-10-16T00:50:20.724Z,12.90
2018-10-16T00:52:49.869Z,13.00
2018-10-16T00:55:19.021Z,13.00
2018-10-16T00:57:48.154Z,12.90
2018-10-16T01:00:17.308Z,12.90
2018-10-16T01:02:46.390Z,12.90
2018-10-16T01:05:15.603Z,12.80
2018-10-16T01:07:44.605Z,12.70
2018-10-16T01:10:14.146Z,12.70
2018-10-16T01:12:43.268Z,12.80
2018-10-16T01:15:12.898Z,12.80
2018-10-16T01:17:42.099Z,12.90
2018-10-16T01:20:12.965Z,12.90
2018-10-16T01:22:42.485Z,12.90
2018-10-16T01:25:12.540Z,12.80
2018-10-16T01:27:41.703Z,12.80
2018-10-16T01:30:10.860Z,12.90
2018-10-16T01:32:39.947Z,12.90
2018-10-16T01:35:10.903Z,12.90
2018-10-16T01:37:39.828Z,12.90
2018-10-16T01:40:10.162Z,12.90
2018-10-16T01:42:39.288Z,12.70
2018-10-16T01:45:09.153Z,12.70
2018-10-16T01:47:38.229Z,12.70
2018-10-16T01:50:07.747Z,12.60
2018-10-16T01:52:37.112Z,12.70
2018-10-16T01:55:06.368Z,12.60
2018-10-16T01:57:35.490Z,12.60
2018-10-16T02:00:04.474Z,12.50
2018-10-16T02:02:33.604Z,12.40
2018-10-16T02:05:02.694Z,12.40
2018-10-16T02:07:31.810Z,12.40
2018-10-16T02:10:00.872Z,12.40
2018-10-16T02:12:29.993Z,12.30
2018-10-16T02:14:59.047Z,12.30
2018-10-16T02:17:28.160Z,12.10
2018-10-16T02:19:57.240Z,12.20
2018-10-16T02:22:26.339Z,12.20
2018-10-16T02:24:55.472Z,12.20
2018-10-16T02:27:24.639Z,12.10
2018-10-16T02:29:53.778Z,12.10
2018-10-16T02:32:22.933Z,12.10
2018-10-16T02:34:52.004Z,12.20
2018-10-16T02:37:21.057Z,12.20
2018-10-16T02:39:50.195Z,12.10
2018-10-16T02:42:19.225Z,12.10
2018-10-16T02:44:48.391Z,12.00
2018-10-16T02:47:17.586Z,11.80
2018-10-16T02:49:46.714Z,11.90
2018-10-16T02:52:15.895Z,12.00
2018-10-16T02:54:44.992Z,11.90
2018-10-16T02:57:14.092Z,11.90
2018-10-16T02:59:43.272Z,12.00
2018-10-16T03:02:12.385Z,12.00
2018-10-16T03:04:41.433Z,12.00
2018-10-16T03:07:10.672Z,12.10
2018-10-16T03:09:39.756Z,12.10
2018-10-16T03:12:08.844Z,12.10
2018-10-16T03:14:38.083Z,12.10
2018-10-16T03:17:07.352Z,12.00
2018-10-16T03:19:36.428Z,12.00
2018-10-16T03:22:05.665Z,12.00
2018-10-16T03:24:34.724Z,12.00
2018-10-16T03:27:03.964Z,12.00
2018-10-16T03:29:33.013Z,12.10
2018-10-16T03:32:02.125Z,12.00
2018-10-16T03:34:31.147Z,12.00
2018-10-16T03:37:00.304Z,12.00
2018-10-16T03:39:29.354Z,12.00
2018-10-16T03:41:58.392Z,12.10
2018-10-16T03:44:27.515Z,11.90
2018-10-16T03:46:56.684Z,11.90
2018-10-16T03:49:25.775Z,11.90
2018-10-16T03:51:54.923Z,11.90
2018-10-16T03:54:23.960Z,12.00
2018-10-16T03:56:53.092Z,12.00
2018-10-16T03:59:22.257Z,12.00
2018-10-16T04:01:51.324Z,11.80
2018-10-16T04:04:20.213Z,11.60
2018-10-16T04:06:49.821Z,11.60
2018-10-16T04:09:19.092Z,11.60
2018-10-16T04:11:48.128Z,11.60
2018-10-16T04:14:17.148Z,11.50
2018-10-16T04:16:46.168Z,11.70
2018-10-16T04:19:15.224Z,11.70
2018-10-16T04:21:45.445Z,11.80
2018-10-16T04:24:14.914Z,11.80
2018-10-16T04:26:44.032Z,11.80
2018-10-16T04:29:13.256Z,11.80
2018-10-16T04:31:42.345Z,11.80
2018-10-16T04:34:11.404Z,11.80
2018-10-16T04:36:40.532Z,11.80
2018-10-16T04:39:13.013Z,11.80
2018-10-16T04:41:42.622Z,11.80
2018-10-16T04:44:11.936Z,11.90
2018-10-16T04:46:41.173Z,11.90
2018-10-16T04:49:10.393Z,11.90
2018-10-16T04:51:39.493Z,11.90
2018-10-16T04:54:08.605Z,11.90
2018-10-16T04:56:37.634Z,11.90
2018-10-16T04:59:06.780Z,11.90
2018-10-16T05:01:35.780Z,11.90
2018-10-16T05:04:04.644Z,11.90
2018-10-16T05:06:33.472Z,11.90
2018-10-16T05:09:02.572Z,11.90
2018-10-16T05:11:31.732Z,11.90
2018-10-16T05:14:00.961Z,11.80
2018-10-16T05:16:30.062Z,11.80
2018-10-16T05:18:59.377Z,11.80
2018-10-16T05:21:28.489Z,11.80
2018-10-16T05:23:57.578Z,11.70
2018-10-16T05:26:26.829Z,11.80
2018-10-16T05:28:55.834Z,11.80
2018-10-16T05:31:25.077Z,11.80
2018-10-16T05:33:54.111Z,11.80
2018-10-16T05:36:23.040Z,11.70
2018-10-16T05:38:52.191Z,11.70
2018-10-16T05:41:21.492Z,11.60
2018-10-16T05:43:50.538Z,11.60
2018-10-16T05:46:19.916Z,11.60
2018-10-16T05:48:49.103Z,11.60
2018-10-16T05:51:18.174Z,11.60
2018-10-16T05:53:47.404Z,11.60
2018-10-16T05:56:16.499Z,11.60
2018-10-16T05:58:45.453Z,11.60
2018-10-16T06:01:14.540Z,11.60
2018-10-16T06:03:43.774Z,11.60
2018-10-16T06:06:12.959Z,11.60
2018-10-16T06:08:42.068Z,11.50
2018-10-16T06:11:11.136Z,11.40
2018-10-16T06:13:40.242Z,11.40
2018-10-16T06:16:09.345Z,11.40
2018-10-16T06:18:38.447Z,11.40
2018-10-16T06:21:07.664Z,11.40
2018-10-16T06:23:36.837Z,11.40
2018-10-16T06:26:06.020Z,11.30
2018-10-16T06:28:35.193Z,11.40
2018-10-16T06:31:04.369Z,11.40
2018-10-16T06:33:33.661Z,11.50
2018-10-16T06:36:02.723Z,11.40
2018-10-16T06:38:31.815Z,11.40
2018-10-16T06:41:01.354Z,11.40
2018-10-16T06:43:30.220Z,11.40
2018-10-16T06:45:59.432Z,11.40
2018-10-16T06:48:28.965Z,11.40
2018-10-16T06:50:57.799Z,11.40
2018-10-16T06:53:26.946Z,11.40
2018-10-16T06:55:56.080Z,11.50
2018-10-16T06:58:25.197Z,11.50
2018-10-16T07:00:54.473Z,11.40
2018-10-16T07:03:23.693Z,11.50
2018-10-16T07:05:52.868Z,11.40
2018-10-16T07:08:21.945Z,11.40
2018-10-16T07:10:51.291Z,11.30
2018-10-16T07:13:20.353Z,11.30
2018-10-16T07:15:49.468Z,11.50
2018-10-16T07:18:18.556Z,11.50
2018-10-16T07:20:47.652Z,11.50
2018-10-16T07:23:16.849Z,11.40
2018-10-16T07:25:45.925Z,11.40
2018-10-16T07:28:15.107Z,11.40
2018-10-16T07:30:44.121Z,11.30
2018-10-16T07:33:13.104Z,11.40
2018-10-16T07:35:42.164Z,11.40
2018-10-16T07:38:11.306Z,11.50
2018-10-16T07:40:40.408Z,11.50
2018-10-16T07:43:09.472Z,11.60
2018-10-16T07:45:38.593Z,11.60
2018-10-16T07:48:07.850Z,11.60
2018-10-16T07:50:37.106Z,11.60
2018-10-16T07:53:06.473Z,11.60
2018-10-16T07:55:35.604Z,11.70
2018-10-16T07:58:04.703Z,11.70
2018-10-16T08:00:33.851Z,11.70
2018-10-16T08:03:02.997Z,11.70
2018-10-16T08:05:31.991Z,11.70
2018-10-16T08:08:01.084Z,11.80
2018-10-16T08:10:30.309Z,11.80
2018-10-16T08:12:59.403Z,11.60
2018-10-16T08:15:28.436Z,11.70
2018-10-16T08:17:57.544Z,11.80
2018-10-16T08:20:26.631Z,11.70
2018-10-16T08:22:55.738Z,11.70
2018-10-16T08:25:24.860Z,11.70
2018-10-16T08:27:54.021Z,11.70
2018-10-16T08:30:23.137Z,11.60
2018-10-16T08:32:52.398Z,11.70
2018-10-16T08:35:21.512Z,11.70
2018-10-16T08:40:03.810Z,11.60
2018-10-16T08:43:00.855Z,11.70
2018-10-16T08:45:40.986Z,11.60
2018-10-16T08:48:21.237Z,11.70
2018-10-16T08:51:01.390Z,11.70
2018-10-16T08:53:30.538Z,11.70
2018-10-16T08:55:59.545Z,11.70
2018-10-16T08:58:28.639Z,11.80
2018-10-16T09:00:57.724Z,11.80
2018-10-16T09:03:26.817Z,11.90
2018-10-16T09:05:55.779Z,11.90
2018-10-16T09:08:24.918Z,12.00
2018-10-16T09:10:53.996Z,12.00
2018-10-16T09:13:23.176Z,12.10
2018-10-16T09:15:52.408Z,12.20
2018-10-16T09:18:21.687Z,12.20
2018-10-16T09:20:50.793Z,12.30
2018-10-16T09:23:19.864Z,12.40
2018-10-16T09:25:49.064Z,12.50
2018-10-16T09:28:18.138Z,12.50
2018-10-16T09:30:47.469Z,12.60
2018-10-16T09:33:16.593Z,12.60
2018-10-16T09:35:45.860Z,12.70
2018-10-16T09:38:15.188Z,12.90
2018-10-16T09:40:44.492Z,12.90
2018-10-16T09:43:13.561Z,13.00
2018-10-16T09:45:42.581Z,13.10
2018-10-16T09:48:11.660Z,13.20
2018-10-16T09:50:40.630Z,13.20
2018-10-16T09:53:09.731Z,13.30
2018-10-16T09:55:38.832Z,13.40
2018-10-16T09:58:07.892Z,13.50
2018-10-16T10:00:42.136Z,13.50
2018-10-16T10:03:11.259Z,13.50
2018-10-16T10:05:40.323Z,13.60
2018-10-16T10:08:09.429Z,13.70
2018-10-16T10:10:38.532Z,13.80
2018-10-16T10:13:07.675Z,13.90
2018-10-16T10:15:36.753Z,13.90
2018-10-16T10:18:06.118Z,14.00
2018-10-16T10:20:35.176Z,14.20
2018-10-16T10:23:04.511Z,14.30
2018-10-16T10:25:33.608Z,14.30
2018-10-16T10:28:02.721Z,14.40
2018-10-16T10:30:31.906Z,14.40
2018-10-16T10:33:00.994Z,14.40
2018-10-16T10:35:30.107Z,14.50
2018-10-16T10:37:59.052Z,14.50
2018-10-16T10:40:28.213Z,14.60
2018-10-16T10:42:57.252Z,14.60
2018-10-16T10:45:26.350Z,14.70
2018-10-16T10:47:55.592Z,14.80
2018-10-16T10:50:25.047Z,14.90
2018-10-16T10:52:53.975Z,14.90
2018-10-16T10:55:23.043Z,14.90
2018-10-16T10:57:52.152Z,15.00
2018-10-16T11:00:21.361Z,15.00
2018-10-16T11:02:50.395Z,15.00
2018-10-16T11:05:19.573Z,15.10
2018-10-16T11:07:48.602Z,15.10
2018-10-16T11:10:17.623Z,15.10
2018-10-16T11:12:46.612Z,15.10
2018-10-16T11:15:15.786Z,15.10
2018-10-16T11:17:44.864Z,15.10
2018-10-16T11:20:14.344Z,15.20
2018-10-16T11:22:43.575Z,15.20
2018-10-16T11:25:12.717Z,15.20
2018-10-16T11:27:41.888Z,15.30
2018-10-16T11:30:14.062Z,15.30
2018-10-16T11:32:43.117Z,15.30
2018-10-16T11:35:13.450Z,15.30
2018-10-16T11:37:42.759Z,15.30
2018-10-16T11:40:12.157Z,15.40
2018-10-16T11:42:41.952Z,15.40
2018-10-16T11:45:11.207Z,15.50
2018-10-16T11:47:40.501Z,15.50
2018-10-16T11:50:10.943Z,15.60
2018-10-16T11:52:40.333Z,15.60
2018-10-16T11:55:10.051Z,15.60
2018-10-16T11:57:39.344Z,15.70
2018-10-16T12:00:11.568Z,15.70
2018-10-16T12:02:40.953Z,15.80
2018-10-16T12:05:10.276Z,15.80
2018-10-16T12:07:39.373Z,15.90
2018-10-16T12:10:08.564Z,15.90
2018-10-16T12:12:37.683Z,16.00
2018-10-16T12:15:07.237Z,16.00
2018-10-16T12:17:41.453Z,16.00
2018-10-16T12:20:14.021Z,16.00
2018-10-16T12:22:43.317Z,16.10
2018-10-16T12:25:13.349Z,16.10
2018-10-16T12:27:42.372Z,16.20
2018-10-16T12:30:11.577Z,16.20
2018-10-16T12:32:40.666Z,16.30
2018-10-16T12:35:09.919Z,16.30
2018-10-16T12:37:38.957Z,16.40
2018-10-16T12:40:08.503Z,16.50
2018-10-16T12:42:37.512Z,16.50
2018-10-16T12:45:07.676Z,16.50
2018-10-16T12:47:36.925Z,16.60
2018-10-16T12:50:06.413Z,16.70
2018-10-16T12:52:35.666Z,16.70
2018-10-16T12:55:04.865Z,16.80
2018-10-16T12:57:33.960Z,16.80
2018-10-16T13:00:03.295Z,16.90
2018-10-16T13:02:32.366Z,16.90
2018-10-16T13:05:01.461Z,17.00
2018-10-16T13:07:35.382Z,17.10
2018-10-16T13:10:05.869Z,17.10
2018-10-16T13:12:35.128Z,17.20
2018-10-16T13:15:04.401Z,17.20
2018-10-16T13:17:33.514Z,17.30
2018-10-16T13:20:03.779Z,17.20
2018-10-16T13:22:32.936Z,17.30
2018-10-16T13:25:02.853Z,17.20
2018-10-16T13:27:31.966Z,17.20
2018-10-16T13:30:01.137Z,17.20
2018-10-16T13:32:30.106Z,17.20
2018-10-16T13:34:59.359Z,17.20
2018-10-16T13:37:28.472Z,17.20
2018-10-16T13:39:57.685Z,17.10
2018-10-16T13:42:26.787Z,17.10
2018-10-16T13:44:55.900Z,17.10
2018-10-16T13:47:24.959Z,17.10
2018-10-16T13:49:54.262Z,17.10
2018-10-16T13:52:23.496Z,17.00
2018-10-16T13:54:52.494Z,17.00
2018-10-16T13:57:21.551Z,17.00
2018-10-16T13:59:50.661Z,17.00
2018-10-16T14:02:19.783Z,17.00
2018-10-16T14:04:48.989Z,17.00
2018-10-16T14:07:18.152Z,16.90
2018-10-16T14:09:47.236Z,16.90
2018-10-16T14:12:16.317Z,16.90
2018-10-16T14:14:45.491Z,16.90
2018-10-16T14:17:14.509Z,16.90
2018-10-16T14:19:43.617Z,16.90
2018-10-16T14:22:12.742Z,16.90
2018-10-16T14:24:41.800Z,16.90
2018-10-16T14:27:10.945Z,16.90
2018-10-16T14:29:39.999Z,16.90
2018-10-16T14:32:09.191Z,16.90
2018-10-16T14:34:38.262Z,16.90
2018-10-16T14:37:07.303Z,16.80
2018-10-16T14:39:36.314Z,16.80
2018-10-16T14:42:05.761Z,16.70
2018-10-16T14:44:34.764Z,16.70
2018-10-16T14:47:03.964Z,16.70
2018-10-16T14:49:33.063Z,16.70
2018-10-16T14:52:02.230Z,16.70
2018-10-16T14:54:31.332Z,16.70
2018-10-16T14:57:00.560Z,16.70
2018-10-16T14:59:29.654Z,16.70
2018-10-16T15:01:58.769Z,16.70
2018-10-16T15:04:27.736Z,16.70
2018-10-16T15:06:56.696Z,16.70
2018-10-16T15:09:25.860Z,16.60
2018-10-16T15:11:55.033Z,16.60
2018-10-16T15:14:24.109Z,16.50
2018-10-16T15:16:53.298Z,16.50
2018-10-16T15:19:22.418Z,16.50
2018-10-16T15:21:51.776Z,16.50
2018-10-16T15:24:20.989Z,16.50
2018-10-16T15:26:50.181Z,16.40
2018-10-16T15:29:19.298Z,16.40
2018-10-16T15:31:48.384Z,16.40
2018-10-16T15:34:17.524Z,16.40
2018-10-16T15:36:46.588Z,16.40
2018-10-16T15:39:15.684Z,16.30
2018-10-16T15:41:44.651Z,16.30
2018-10-16T15:44:13.825Z,16.20
2018-10-16T15:46:42.891Z,16.20
2018-10-16T15:49:11.968Z,16.20
2018-10-16T15:51:41.131Z,16.20
2018-10-16T15:54:10.224Z,16.20
2018-10-16T15:56:39.345Z,16.20
2018-10-16T15:59:08.349Z,16.20
2018-10-16T16:01:37.435Z,16.20
2018-10-16T16:04:06.475Z,16.10
2018-10-16T16:06:35.502Z,16.10
2018-10-16T16:09:06.097Z,16.10
2018-10-16T16:11:35.254Z,16.00
2018-10-16T16:14:04.439Z,16.00
2018-10-16T16:16:33.511Z,16.00
2018-10-16T16:19:02.716Z,15.90
2018-10-16T16:21:31.820Z,15.90
2018-10-16T16:24:01.048Z,15.90
2018-10-16T16:26:30.197Z,15.90
2018-10-16T16:28:59.311Z,15.90
2018-10-16T16:31:28.411Z,15.90
2018-10-16T16:33:57.313Z,15.80
2018-10-16T16:36:26.461Z,15.90
2018-10-16T16:38:55.589Z,15.90
2018-10-16T16:41:24.765Z,15.80
2018-10-16T16:43:53.981Z,15.90
2018-10-16T16:46:23.178Z,15.80
2018-10-16T16:48:52.295Z,15.90
2018-10-16T16:51:21.474Z,15.80
2018-10-16T16:53:50.469Z,15.80
2018-10-16T16:56:19.561Z,15.70
2018-10-16T16:58:48.651Z,15.70
2018-10-16T17:01:17.796Z,15.70
2018-10-16T17:03:46.960Z,15.70
2018-10-16T17:06:15.804Z,15.70
2018-10-16T17:08:44.837Z,15.70
2018-10-16T17:11:13.666Z,15.70
2018-10-16T17:13:43.061Z,15.60
2018-10-16T17:16:12.279Z,15.60
2018-10-16T17:18:41.414Z,15.50
2018-10-16T17:21:10.602Z,15.60
2018-10-16T17:23:39.813Z,15.60
2018-10-16T17:26:09.036Z,15.60
2018-10-16T17:28:38.118Z,15.60
2018-10-16T17:31:07.302Z,15.50
2018-10-16T17:33:36.384Z,15.60
2018-10-16T17:36:05.772Z,15.60
2018-10-16T17:38:34.929Z,15.50
2018-10-16T17:41:04.082Z,15.60
2018-10-16T17:43:33.273Z,15.60
2018-10-16T17:46:02.491Z,15.50
2018-10-16T17:48:31.885Z,15.50
2018-10-16T17:51:01.163Z,15.50
2018-10-16T17:53:30.283Z,15.40
2018-10-16T17:55:59.376Z,15.40
2018-10-16T17:58:28.214Z,15.40
2018-10-16T18:00:57.362Z,15.40
2018-10-16T18:03:26.612Z,15.40
2018-10-16T18:05:55.949Z,15.40
2018-10-16T18:08:24.928Z,15.30
2018-10-16T18:10:53.947Z,15.40
2018-10-16T18:13:23.048Z,15.30
2018-10-16T18:15:52.275Z,15.30
2018-10-16T18:18:21.434Z,15.30
2018-10-16T18:20:50.644Z,15.20
2018-10-16T18:23:19.721Z,15.20
2018-10-16T18:25:48.804Z,15.20
2018-10-16T18:28:18.065Z,15.20
2018-10-16T18:30:47.227Z,15.10
2018-10-16T18:33:16.319Z,15.10
2018-10-16T18:35:45.652Z,15.10
2018-10-16T18:38:14.719Z,15.10
2018-10-16T18:40:43.706Z,15.00
2018-10-16T18:43:12.784Z,15.00
2018-10-16T18:45:41.883Z,14.90
2018-10-16T18:48:10.986Z,14.80
2018-10-16T18:50:40.071Z,14.80
2018-10-16T18:53:09.321Z,14.80
2018-10-16T18:55:38.467Z,14.80
2018-10-16T18:58:07.557Z,14.60
2018-10-16T19:00:36.406Z,14.50
2018-10-16T19:03:05.664Z,14.60
2018-10-16T19:05:34.834Z,14.60
2018-10-16T19:08:04.264Z,14.70
2018-10-16T19:10:33.347Z,14.60
2018-10-16T19:13:03.264Z,14.60
2018-10-16T19:15:32.384Z,14.60
2018-10-16T19:18:01.496Z,14.60
2018-10-16T19:20:30.634Z,14.60
2018-10-16T19:22:59.743Z,14.60
2018-10-16T19:25:29.073Z,14.60
2018-10-16T19:27:58.319Z,14.50
2018-10-16T19:30:27.577Z,14.40
2018-10-16T19:32:56.769Z,14.40
2018-10-16T19:35:25.936Z,14.40
2018-10-16T19:37:55.113Z,14.40
2018-10-16T19:40:24.215Z,14.30
2018-10-16T19:42:53.336Z,14.30
2018-10-16T19:45:22.579Z,14.30
2018-10-16T19:47:51.595Z,14.20
2018-10-16T19:50:20.696Z,14.20
2018-10-16T19:52:49.796Z,14.20
2018-10-16T19:55:18.945Z,14.10
2018-10-16T19:57:48.014Z,14.10
2018-10-16T20:00:17.074Z,13.80
2018-10-16T20:02:46.273Z,13.90
2018-10-16T20:05:15.140Z,13.90
2018-10-16T20:07:44.403Z,13.90
2018-10-16T20:10:13.671Z,13.80
2018-10-16T20:12:42.572Z,13.80
2018-10-16T20:15:12.525Z,13.80
2018-10-16T20:17:41.651Z,13.80
2018-10-16T20:20:11.920Z,13.60
2018-10-16T20:22:41.256Z,13.50
2018-10-16T20:25:10.981Z,13.50
2018-10-16T20:27:40.217Z,13.50
2018-10-16T20:30:10.169Z,13.50
2018-10-16T20:32:39.076Z,13.50
2018-10-16T20:35:08.288Z,13.40
2018-10-16T20:37:37.487Z,13.40
2018-10-16T20:40:06.597Z,13.40
2018-10-16T20:42:36.157Z,13.40
2018-10-16T20:45:05.427Z,13.30
2018-10-16T20:47:34.637Z,13.30
2018-10-16T20:50:03.747Z,13.30
2018-10-16T20:52:32.857Z,13.30
2018-10-16T20:55:01.683Z,13.20
2018-10-16T20:57:30.917Z,13.10
2018-10-16T21:00:00.605Z,13.10
2018-10-16T21:02:29.423Z,13.10
2018-10-16T21:04:58.859Z,13.00
2018-10-16T21:07:27.953Z,12.70
2018-10-16T21:09:56.968Z,12.40
2018-10-16T21:12:26.035Z,12.30
2018-10-16T21:14:55.123Z,12.20
2018-10-16T21:17:24.252Z,12.40
2018-10-16T21:19:53.319Z,12.60
2018-10-16T21:22:22.420Z,12.50
2018-10-16T21:24:51.524Z,12.70
2018-10-16T21:27:20.567Z,12.70
2018-10-16T21:29:49.390Z,12.70
2018-10-16T21:32:18.512Z,12.80
2018-10-16T21:34:47.317Z,12.70
2018-10-16T21:37:16.471Z,12.50
2018-10-16T21:39:45.555Z,12.50
2018-10-16T21:42:14.657Z,12.50
2018-10-16T21:44:43.721Z,12.30
2018-10-16T21:47:13.008Z,12.30
2018-10-16T21:49:42.082Z,12.30
2018-10-16T21:52:11.255Z,12.40
2018-10-16T21:54:40.237Z,12.30
2018-10-16T21:57:09.358Z,12.20
2018-10-16T21:59:38.416Z,12.20
2018-10-16T22:02:12.531Z,12.20
2018-10-16T22:04:41.591Z,12.00
2018-10-16T22:07:10.905Z,12.10
2018-10-16T22:09:39.738Z,12.20
2018-10-16T22:12:08.796Z,12.20
2018-10-16T22:14:37.816Z,12.20
2018-10-16T22:17:07.160Z,12.20
2018-10-16T22:19:36.124Z,12.20
2018-10-16T22:22:05.145Z,12.10
2018-10-16T22:24:34.184Z,12.10
2018-10-16T22:27:03.301Z,12.10
2018-10-16T22:29:32.346Z,12.10
2018-10-16T22:32:01.131Z,12.10
2018-10-16T22:34:29.934Z,12.00
2018-10-16T22:36:59.081Z,12.00
2018-10-16T22:39:28.157Z,11.60
2018-10-16T22:41:57.011Z,11.40
2018-10-16T22:44:25.788Z,11.20
2018-10-16T22:46:54.602Z,11.20
2018-10-16T22:49:23.704Z,11.30
2018-10-16T22:51:52.796Z,11.30
2018-10-16T22:54:21.937Z,11.30
2018-10-16T22:56:51.097Z,11.40
2018-10-16T22:59:20.184Z,11.60
2018-10-16T23:01:49.385Z,11.60
2018-10-16T23:04:18.571Z,11.70
2018-10-16T23:06:47.693Z,11.70
2018-10-16T23:09:16.864Z,11.70
2018-10-16T23:11:45.968Z,11.80
2018-10-16T23:14:15.056Z,11.80
2018-10-16T23:16:44.169Z,11.70
2018-10-16T23:19:13.335Z,11.70
2018-10-16T23:21:42.557Z,11.60
2018-10-16T23:24:11.759Z,11.60
2018-10-16T23:26:40.916Z,11.70
2018-10-16T23:29:10.066Z,11.60
2018-10-16T23:31:39.152Z,11.70
2018-10-16T23:34:08.442Z,11.70
2018-10-16T23:36:37.533Z,11.50
2018-10-16T23:39:12.224Z,11.50
2018-10-16T23:41:42.345Z,11.60
2018-10-16T23:44:11.935Z,11.60
2018-10-16T23:46:41.088Z,11.60
2018-10-16T23:49:10.541Z,11.60
2018-10-16T23:51:39.564Z,11.50
2018-10-16T23:54:08.751Z,11.50
2018-10-16T23:56:37.784Z,11.50
2018-10-16T23:59:06.882Z,11.30
